sensor_id;sensor_type;location;lat;lon;timestamp;temperature;humidity
65058;HTU21D;51644;51.068;5.860;2022-10-28T00:00:36;20.72;61.54
65058;HTU21D;51644;51.068;5.860;2022-10-28T00:01:34;20.71;61.53
65058;HTU21D;51644;51.068;5.860;2022-10-28T00:02:33;20.71;61.48
65058;HTU21D;51644;51.068;5.860;2022-10-28T00:03:40;20.70;61.50
65058;HTU21D;51644;51.068;5.860;2022-10-28T00:04:39;20.71;61.50
65058;HTU21D;51644;51.068;5.860;2022-10-28T00:05:38;20.71;61.54
65058;HTU21D;51644;51.068;5.860;2022-10-28T00:06:37;20.68;61.59
65058;HTU21D;51644;51.068;5.860;2022-10-28T00:07:35;20.68;61.49
65058;HTU21D;51644;51.068;5.860;2022-10-28T00:08:34;20.68;61.55
65058;HTU21D;51644;51.068;5.860;2022-10-28T00:09:33;20.69;61.53
65058;HTU21D;51644;51.068;5.860;2022-10-28T00:10:31;20.66;61.53
65058;HTU21D;51644;51.068;5.860;2022-10-28T00:11:32;20.66;61.54
65058;HTU21D;51644;51.068;5.860;2022-10-28T00:12:35;20.64;61.54
65058;HTU21D;51644;51.068;5.860;2022-10-28T00:13:35;20.64;61.54
65058;HTU21D;51644;51.068;5.860;2022-10-28T00:14:33;20.61;61.60
65058;HTU21D;51644;51.068;5.860;2022-10-28T00:15:33;20.59;61.69
65058;HTU21D;51644;51.068;5.860;2022-10-28T00:16:34;20.55;61.72
65058;HTU21D;51644;51.068;5.860;2022-10-28T00:17:34;20.54;61.82
65058;HTU21D;51644;51.068;5.860;2022-10-28T00:18:33;20.50;61.83
65058;HTU21D;51644;51.068;5.860;2022-10-28T00:19:32;20.49;61.85
65058;HTU21D;51644;51.068;5.860;2022-10-28T00:20:30;20.49;61.87
65058;HTU21D;51644;51.068;5.860;2022-10-28T00:21:31;20.46;61.96
65058;HTU21D;51644;51.068;5.860;2022-10-28T00:22:30;20.43;62.05
65058;HTU21D;51644;51.068;5.860;2022-10-28T00:23:28;20.41;62.08
65058;HTU21D;51644;51.068;5.860;2022-10-28T00:24:27;20.39;62.12
65058;HTU21D;51644;51.068;5.860;2022-10-28T00:25:27;20.37;62.18
65058;HTU21D;51644;51.068;5.860;2022-10-28T00:26:28;20.33;62.31
65058;HTU21D;51644;51.068;5.860;2022-10-28T00:27:27;20.31;62.39
65058;HTU21D;51644;51.068;5.860;2022-10-28T00:28:27;20.28;62.50
65058;HTU21D;51644;51.068;5.860;2022-10-28T00:29:25;20.25;62.63
65058;HTU21D;51644;51.068;5.860;2022-10-28T00:30:24;20.21;62.74
65058;HTU21D;51644;51.068;5.860;2022-10-28T00:31:24;20.17;62.88
65058;HTU21D;51644;51.068;5.860;2022-10-28T00:32:30;20.14;62.99
65058;HTU21D;51644;51.068;5.860;2022-10-28T00:33:29;20.11;63.11
65058;HTU21D;51644;51.068;5.860;2022-10-28T00:34:28;20.09;63.16
65058;HTU21D;51644;51.068;5.860;2022-10-28T00:35:26;20.04;63.33
65058;HTU21D;51644;51.068;5.860;2022-10-28T00:36:28;20.02;63.37
65058;HTU21D;51644;51.068;5.860;2022-10-28T00:37:27;20.00;63.49
65058;HTU21D;51644;51.068;5.860;2022-10-28T00:38:25;19.96;63.53
65058;HTU21D;51644;51.068;5.860;2022-10-28T00:39:24;19.96;63.59
65058;HTU21D;51644;51.068;5.860;2022-10-28T00:40:24;19.94;63.66
65058;HTU21D;51644;51.068;5.860;2022-10-28T00:41:24;19.95;63.71
65058;HTU21D;51644;51.068;5.860;2022-10-28T00:42:23;19.90;63.81
65058;HTU21D;51644;51.068;5.860;2022-10-28T00:43:41;19.89;63.84
65058;HTU21D;51644;51.068;5.860;2022-10-28T00:45:51;19.87;63.90
65058;HTU21D;51644;51.068;5.860;2022-10-28T00:46:51;19.85;63.92
65058;HTU21D;51644;51.068;5.860;2022-10-28T00:48:00;19.85;63.97
65058;HTU21D;51644;51.068;5.860;2022-10-28T00:49:15;19.84;64.01
65058;HTU21D;51644;51.068;5.860;2022-10-28T00:51:20;19.82;64.10
65058;HTU21D;51644;51.068;5.860;2022-10-28T00:52:26;19.81;64.12
65058;HTU21D;51644;51.068;5.860;2022-10-28T00:53:30;19.82;64.14
65058;HTU21D;51644;51.068;5.860;2022-10-28T00:54:30;19.81;64.18
65058;HTU21D;51644;51.068;5.860;2022-10-28T00:55:32;19.81;64.25
65058;HTU21D;51644;51.068;5.860;2022-10-28T00:56:37;19.79;64.34
65058;HTU21D;51644;51.068;5.860;2022-10-28T00:57:37;19.79;64.43
65058;HTU21D;51644;51.068;5.860;2022-10-28T00:58:36;19.79;64.34
65058;HTU21D;51644;51.068;5.860;2022-10-28T00:59:41;19.79;64.40
65058;HTU21D;51644;51.068;5.860;2022-10-28T01:00:41;19.77;64.36
65058;HTU21D;51644;51.068;5.860;2022-10-28T01:01:40;19.80;64.36
65058;HTU21D;51644;51.068;5.860;2022-10-28T01:02:46;19.79;64.48
65058;HTU21D;51644;51.068;5.860;2022-10-28T01:03:46;19.77;64.46
65058;HTU21D;51644;51.068;5.860;2022-10-28T01:04:45;19.77;64.54
65058;HTU21D;51644;51.068;5.860;2022-10-28T01:05:46;19.74;64.60
65058;HTU21D;51644;51.068;5.860;2022-10-28T01:06:47;19.74;64.66
65058;HTU21D;51644;51.068;5.860;2022-10-28T01:07:47;19.71;64.77
65058;HTU21D;51644;51.068;5.860;2022-10-28T01:08:45;19.69;64.89
65058;HTU21D;51644;51.068;5.860;2022-10-28T01:09:44;19.70;64.92
65058;HTU21D;51644;51.068;5.860;2022-10-28T01:10:59;19.73;64.82
65058;HTU21D;51644;51.068;5.860;2022-10-28T01:14:59;19.74;64.78
65058;HTU21D;51644;51.068;5.860;2022-10-28T01:18:42;19.69;65.04
65058;HTU21D;51644;51.068;5.860;2022-10-28T01:22:20;19.68;65.13
65058;HTU21D;51644;51.068;5.860;2022-10-28T01:29:01;19.59;65.43
65058;HTU21D;51644;51.068;5.860;2022-10-28T01:30:15;19.62;65.36
65058;HTU21D;51644;51.068;5.860;2022-10-28T01:36:17;19.57;65.51
65058;HTU21D;51644;51.068;5.860;2022-10-28T01:40:19;19.47;65.83
65058;HTU21D;51644;51.068;5.860;2022-10-28T01:41:31;19.44;65.91
65058;HTU21D;51644;51.068;5.860;2022-10-28T01:43:03;19.41;66.04
65058;HTU21D;51644;51.068;5.860;2022-10-28T01:46:00;19.33;66.28
65058;HTU21D;51644;51.068;5.860;2022-10-28T01:47:03;19.28;66.43
65058;HTU21D;51644;51.068;5.860;2022-10-28T01:48:21;19.26;66.56
65058;HTU21D;51644;51.068;5.860;2022-10-28T01:49:39;19.23;66.65
65058;HTU21D;51644;51.068;5.860;2022-10-28T01:50:53;19.21;66.74
65058;HTU21D;51644;51.068;5.860;2022-10-28T01:51:58;19.18;66.82
65058;HTU21D;51644;51.068;5.860;2022-10-28T01:53:05;19.15;66.94
65058;HTU21D;51644;51.068;5.860;2022-10-28T01:54:07;19.14;67.01
65058;HTU21D;51644;51.068;5.860;2022-10-28T01:55:17;19.11;67.15
65058;HTU21D;51644;51.068;5.860;2022-10-28T01:56:23;19.08;67.25
65058;HTU21D;51644;51.068;5.860;2022-10-28T01:57:26;19.03;67.36
65058;HTU21D;51644;51.068;5.860;2022-10-28T01:58:29;19.02;67.46
65058;HTU21D;51644;51.068;5.860;2022-10-28T01:59:31;18.99;67.55
65058;HTU21D;51644;51.068;5.860;2022-10-28T02:00:34;18.98;67.60
65058;HTU21D;51644;51.068;5.860;2022-10-28T02:01:35;18.95;67.68
65058;HTU21D;51644;51.068;5.860;2022-10-28T02:02:36;18.91;67.78
65058;HTU21D;51644;51.068;5.860;2022-10-28T02:03:35;18.87;67.91
65058;HTU21D;51644;51.068;5.860;2022-10-28T02:04:34;18.86;67.99
65058;HTU21D;51644;51.068;5.860;2022-10-28T02:05:45;18.85;68.07
65058;HTU21D;51644;51.068;5.860;2022-10-28T02:06:49;18.84;68.07
65058;HTU21D;51644;51.068;5.860;2022-10-28T02:07:55;18.84;68.01
65058;HTU21D;51644;51.068;5.860;2022-10-28T02:10:22;18.86;67.95
65058;HTU21D;51644;51.068;5.860;2022-10-28T02:12:46;18.85;67.98
65058;HTU21D;51644;51.068;5.860;2022-10-28T02:14:00;18.82;68.11
65058;HTU21D;51644;51.068;5.860;2022-10-28T02:19:49;18.78;68.22
65058;HTU21D;51644;51.068;5.860;2022-10-28T02:21:06;18.76;68.26
65058;HTU21D;51644;51.068;5.860;2022-10-28T02:22:49;18.73;68.41
65058;HTU21D;51644;51.068;5.860;2022-10-28T02:25:47;18.69;68.63
65058;HTU21D;51644;51.068;5.860;2022-10-28T02:27:11;18.66;68.74
65058;HTU21D;51644;51.068;5.860;2022-10-28T02:28:22;18.63;68.81
65058;HTU21D;51644;51.068;5.860;2022-10-28T02:29:32;18.61;68.97
65058;HTU21D;51644;51.068;5.860;2022-10-28T02:32:11;18.54;69.13
65058;HTU21D;51644;51.068;5.860;2022-10-28T02:33:19;18.53;69.30
65058;HTU21D;51644;51.068;5.860;2022-10-28T02:34:26;18.48;69.37
65058;HTU21D;51644;51.068;5.860;2022-10-28T02:35:37;18.47;69.44
65058;HTU21D;51644;51.068;5.860;2022-10-28T02:36:48;18.42;69.52
65058;HTU21D;51644;51.068;5.860;2022-10-28T02:37:51;18.41;69.56
65058;HTU21D;51644;51.068;5.860;2022-10-28T02:38:56;18.40;69.67
65058;HTU21D;51644;51.068;5.860;2022-10-28T02:40:02;18.39;69.76
65058;HTU21D;51644;51.068;5.860;2022-10-28T02:41:11;18.36;69.88
65058;HTU21D;51644;51.068;5.860;2022-10-28T02:42:22;18.35;69.95
65058;HTU21D;51644;51.068;5.860;2022-10-28T02:43:24;18.33;70.01
65058;HTU21D;51644;51.068;5.860;2022-10-28T02:44:28;18.32;70.02
65058;HTU21D;51644;51.068;5.860;2022-10-28T02:45:42;18.29;70.07
65058;HTU21D;51644;51.068;5.860;2022-10-28T02:46:47;18.29;70.07
65058;HTU21D;51644;51.068;5.860;2022-10-28T02:47:53;18.28;70.06
65058;HTU21D;51644;51.068;5.860;2022-10-28T02:49:13;18.27;70.12
65058;HTU21D;51644;51.068;5.860;2022-10-28T02:50:16;18.25;70.12
65058;HTU21D;51644;51.068;5.860;2022-10-28T02:51:22;18.24;70.19
65058;HTU21D;51644;51.068;5.860;2022-10-28T02:52:27;18.22;70.25
65058;HTU21D;51644;51.068;5.860;2022-10-28T02:53:38;18.21;70.29
65058;HTU21D;51644;51.068;5.860;2022-10-28T02:54:54;18.20;70.42
65058;HTU21D;51644;51.068;5.860;2022-10-28T02:55:56;18.18;70.51
65058;HTU21D;51644;51.068;5.860;2022-10-28T02:57:16;18.15;70.61
65058;HTU21D;51644;51.068;5.860;2022-10-28T02:58:15;18.13;70.66
65058;HTU21D;51644;51.068;5.860;2022-10-28T02:59:14;18.13;70.69
65058;HTU21D;51644;51.068;5.860;2022-10-28T03:00:20;18.11;70.72
65058;HTU21D;51644;51.068;5.860;2022-10-28T03:01:20;18.11;70.79
65058;HTU21D;51644;51.068;5.860;2022-10-28T03:02:19;18.10;70.77
65058;HTU21D;51644;51.068;5.860;2022-10-28T03:03:18;18.12;70.77
65058;HTU21D;51644;51.068;5.860;2022-10-28T03:04:16;18.12;70.72
65058;HTU21D;51644;51.068;5.860;2022-10-28T03:05:15;18.13;70.70
65058;HTU21D;51644;51.068;5.860;2022-10-28T03:06:14;18.12;70.72
65058;HTU21D;51644;51.068;5.860;2022-10-28T03:07:12;18.14;70.74
65058;HTU21D;51644;51.068;5.860;2022-10-28T03:08:11;18.15;70.71
65058;HTU21D;51644;51.068;5.860;2022-10-28T03:09:09;18.14;70.69
65058;HTU21D;51644;51.068;5.860;2022-10-28T03:10:09;18.14;70.71
65058;HTU21D;51644;51.068;5.860;2022-10-28T03:11:07;18.13;70.78
65058;HTU21D;51644;51.068;5.860;2022-10-28T03:12:06;18.12;70.82
65058;HTU21D;51644;51.068;5.860;2022-10-28T03:13:07;18.11;70.84
65058;HTU21D;51644;51.068;5.860;2022-10-28T03:14:06;18.12;70.90
65058;HTU21D;51644;51.068;5.860;2022-10-28T03:15:05;18.10;70.88
65058;HTU21D;51644;51.068;5.860;2022-10-28T03:16:03;18.10;70.92
65058;HTU21D;51644;51.068;5.860;2022-10-28T03:17:02;18.10;70.92
65058;HTU21D;51644;51.068;5.860;2022-10-28T03:18:01;18.11;70.91
65058;HTU21D;51644;51.068;5.860;2022-10-28T03:18:59;18.10;70.90
65058;HTU21D;51644;51.068;5.860;2022-10-28T03:19:58;18.12;70.90
65058;HTU21D;51644;51.068;5.860;2022-10-28T03:20:57;18.11;70.94
65058;HTU21D;51644;51.068;5.860;2022-10-28T03:21:55;18.10;70.94
65058;HTU21D;51644;51.068;5.860;2022-10-28T03:22:54;18.09;70.98
65058;HTU21D;51644;51.068;5.860;2022-10-28T03:23:53;18.10;71.03
65058;HTU21D;51644;51.068;5.860;2022-10-28T03:24:51;18.09;71.04
65058;HTU21D;51644;51.068;5.860;2022-10-28T03:25:50;18.09;71.03
65058;HTU21D;51644;51.068;5.860;2022-10-28T03:26:48;18.08;71.04
65058;HTU21D;51644;51.068;5.860;2022-10-28T03:27:50;18.08;71.10
65058;HTU21D;51644;51.068;5.860;2022-10-28T03:28:51;18.07;71.14
65058;HTU21D;51644;51.068;5.860;2022-10-28T03:29:50;18.05;71.17
65058;HTU21D;51644;51.068;5.860;2022-10-28T03:30:48;18.04;71.20
65058;HTU21D;51644;51.068;5.860;2022-10-28T03:31:50;18.02;71.27
65058;HTU21D;51644;51.068;5.860;2022-10-28T03:32:48;17.99;71.38
65058;HTU21D;51644;51.068;5.860;2022-10-28T03:33:47;17.98;71.45
65058;HTU21D;51644;51.068;5.860;2022-10-28T03:34:51;17.96;71.48
65058;HTU21D;51644;51.068;5.860;2022-10-28T03:35:50;17.93;71.53
65058;HTU21D;51644;51.068;5.860;2022-10-28T03:36:49;17.93;71.51
65058;HTU21D;51644;51.068;5.860;2022-10-28T03:37:47;17.91;71.55
65058;HTU21D;51644;51.068;5.860;2022-10-28T03:38:46;17.89;71.63
65058;HTU21D;51644;51.068;5.860;2022-10-28T03:39:47;17.85;71.67
65058;HTU21D;51644;51.068;5.860;2022-10-28T03:40:47;17.84;71.70
65058;HTU21D;51644;51.068;5.860;2022-10-28T03:41:46;17.82;71.74
65058;HTU21D;51644;51.068;5.860;2022-10-28T03:42:45;17.80;71.81
65058;HTU21D;51644;51.068;5.860;2022-10-28T03:43:43;17.78;71.93
65058;HTU21D;51644;51.068;5.860;2022-10-28T03:44:42;17.76;72.00
65058;HTU21D;51644;51.068;5.860;2022-10-28T03:45:43;17.74;71.99
65058;HTU21D;51644;51.068;5.860;2022-10-28T03:46:43;17.70;71.99
65058;HTU21D;51644;51.068;5.860;2022-10-28T03:47:41;17.67;72.09
65058;HTU21D;51644;51.068;5.860;2022-10-28T03:48:40;17.66;72.24
65058;HTU21D;51644;51.068;5.860;2022-10-28T03:49:38;17.63;72.38
65058;HTU21D;51644;51.068;5.860;2022-10-28T03:50:37;17.60;72.50
65058;HTU21D;51644;51.068;5.860;2022-10-28T03:51:36;17.56;72.60
65058;HTU21D;51644;51.068;5.860;2022-10-28T03:52:34;17.55;72.65
65058;HTU21D;51644;51.068;5.860;2022-10-28T03:53:34;17.55;72.75
65058;HTU21D;51644;51.068;5.860;2022-10-28T03:54:33;17.52;72.90
65058;HTU21D;51644;51.068;5.860;2022-10-28T03:55:31;17.49;72.99
65058;HTU21D;51644;51.068;5.860;2022-10-28T03:56:30;17.48;72.96
65058;HTU21D;51644;51.068;5.860;2022-10-28T03:57:32;17.47;73.03
65058;HTU21D;51644;51.068;5.860;2022-10-28T03:58:31;17.45;73.09
65058;HTU21D;51644;51.068;5.860;2022-10-28T03:59:29;17.44;73.12
65058;HTU21D;51644;51.068;5.860;2022-10-28T04:00:28;17.43;73.10
65058;HTU21D;51644;51.068;5.860;2022-10-28T04:01:27;17.40;73.15
65058;HTU21D;51644;51.068;5.860;2022-10-28T04:02:26;17.38;73.23
65058;HTU21D;51644;51.068;5.860;2022-10-28T04:03:25;17.37;73.22
65058;HTU21D;51644;51.068;5.860;2022-10-28T04:04:24;17.36;73.25
65058;HTU21D;51644;51.068;5.860;2022-10-28T04:05:22;17.34;73.38
65058;HTU21D;51644;51.068;5.860;2022-10-28T04:06:21;17.33;73.44
65058;HTU21D;51644;51.068;5.860;2022-10-28T04:07:20;17.32;73.48
65058;HTU21D;51644;51.068;5.860;2022-10-28T04:08:19;17.31;73.53
65058;HTU21D;51644;51.068;5.860;2022-10-28T04:09:18;17.29;73.57
65058;HTU21D;51644;51.068;5.860;2022-10-28T04:10:17;17.26;73.63
65058;HTU21D;51644;51.068;5.860;2022-10-28T04:11:15;17.26;73.72
65058;HTU21D;51644;51.068;5.860;2022-10-28T04:12:14;17.25;73.72
65058;HTU21D;51644;51.068;5.860;2022-10-28T04:13:14;17.25;73.80
65058;HTU21D;51644;51.068;5.860;2022-10-28T04:14:13;17.22;73.86
65058;HTU21D;51644;51.068;5.860;2022-10-28T04:15:11;17.23;73.94
65058;HTU21D;51644;51.068;5.860;2022-10-28T04:16:10;17.21;74.04
65058;HTU21D;51644;51.068;5.860;2022-10-28T04:17:09;17.23;74.12
65058;HTU21D;51644;51.068;5.860;2022-10-28T04:18:08;17.24;74.12
65058;HTU21D;51644;51.068;5.860;2022-10-28T04:19:07;17.22;74.16
65058;HTU21D;51644;51.068;5.860;2022-10-28T04:20:06;17.22;74.24
65058;HTU21D;51644;51.068;5.860;2022-10-28T04:21:05;17.22;74.28
65058;HTU21D;51644;51.068;5.860;2022-10-28T04:22:03;17.22;74.31
65058;HTU21D;51644;51.068;5.860;2022-10-28T04:23:02;17.21;74.37
65058;HTU21D;51644;51.068;5.860;2022-10-28T04:24:01;17.23;74.38
65058;HTU21D;51644;51.068;5.860;2022-10-28T04:24:59;17.22;74.36
65058;HTU21D;51644;51.068;5.860;2022-10-28T04:25:58;17.21;74.43
65058;HTU21D;51644;51.068;5.860;2022-10-28T04:26:56;17.18;74.48
65058;HTU21D;51644;51.068;5.860;2022-10-28T04:27:58;17.18;74.54
65058;HTU21D;51644;51.068;5.860;2022-10-28T04:28:56;17.16;74.55
65058;HTU21D;51644;51.068;5.860;2022-10-28T04:29:55;17.15;74.67
65058;HTU21D;51644;51.068;5.860;2022-10-28T04:30:53;17.16;74.74
65058;HTU21D;51644;51.068;5.860;2022-10-28T04:31:52;17.16;74.80
65058;HTU21D;51644;51.068;5.860;2022-10-28T04:32:50;17.16;74.83
65058;HTU21D;51644;51.068;5.860;2022-10-28T04:33:49;17.17;74.83
65058;HTU21D;51644;51.068;5.860;2022-10-28T04:34:47;17.16;74.84
65058;HTU21D;51644;51.068;5.860;2022-10-28T04:35:46;17.15;74.90
65058;HTU21D;51644;51.068;5.860;2022-10-28T04:36:44;17.15;74.90
65058;HTU21D;51644;51.068;5.860;2022-10-28T04:37:44;17.15;74.96
65058;HTU21D;51644;51.068;5.860;2022-10-28T04:38:42;17.14;74.95
65058;HTU21D;51644;51.068;5.860;2022-10-28T04:39:41;17.13;74.92
65058;HTU21D;51644;51.068;5.860;2022-10-28T04:40:40;17.13;74.95
65058;HTU21D;51644;51.068;5.860;2022-10-28T04:41:39;17.09;74.99
65058;HTU21D;51644;51.068;5.860;2022-10-28T04:42:37;17.09;75.05
65058;HTU21D;51644;51.068;5.860;2022-10-28T04:43:36;17.08;75.12
65058;HTU21D;51644;51.068;5.860;2022-10-28T04:44:34;17.07;75.19
65058;HTU21D;51644;51.068;5.860;2022-10-28T04:45:33;17.08;75.23
65058;HTU21D;51644;51.068;5.860;2022-10-28T04:46:31;17.06;75.30
65058;HTU21D;51644;51.068;5.860;2022-10-28T04:47:30;17.06;75.27
65058;HTU21D;51644;51.068;5.860;2022-10-28T04:48:28;17.08;75.24
65058;HTU21D;51644;51.068;5.860;2022-10-28T04:49:27;17.05;75.27
65058;HTU21D;51644;51.068;5.860;2022-10-28T04:50:26;17.03;75.26
65058;HTU21D;51644;51.068;5.860;2022-10-28T04:51:25;17.01;75.29
65058;HTU21D;51644;51.068;5.860;2022-10-28T04:52:24;17.00;75.31
65058;HTU21D;51644;51.068;5.860;2022-10-28T04:53:22;17.00;75.34
65058;HTU21D;51644;51.068;5.860;2022-10-28T04:54:21;16.99;75.41
65058;HTU21D;51644;51.068;5.860;2022-10-28T04:55:19;16.98;75.46
65058;HTU21D;51644;51.068;5.860;2022-10-28T04:56:18;16.98;75.47
65058;HTU21D;51644;51.068;5.860;2022-10-28T04:57:17;16.96;75.46
65058;HTU21D;51644;51.068;5.860;2022-10-28T04:58:16;16.95;75.50
65058;HTU21D;51644;51.068;5.860;2022-10-28T04:59:14;16.96;75.54
65058;HTU21D;51644;51.068;5.860;2022-10-28T05:00:13;16.99;75.57
65058;HTU21D;51644;51.068;5.860;2022-10-28T05:01:12;16.98;75.61
65058;HTU21D;51644;51.068;5.860;2022-10-28T05:02:10;17.00;75.65
65058;HTU21D;51644;51.068;5.860;2022-10-28T05:03:09;16.99;75.69
65058;HTU21D;51644;51.068;5.860;2022-10-28T05:04:07;16.98;75.76
65058;HTU21D;51644;51.068;5.860;2022-10-28T05:05:06;16.96;75.81
65058;HTU21D;51644;51.068;5.860;2022-10-28T05:06:05;16.96;75.86
65058;HTU21D;51644;51.068;5.860;2022-10-28T05:07:03;16.96;75.86
65058;HTU21D;51644;51.068;5.860;2022-10-28T05:08:02;16.95;75.89
65058;HTU21D;51644;51.068;5.860;2022-10-28T05:09:00;16.93;75.92
65058;HTU21D;51644;51.068;5.860;2022-10-28T05:09:59;16.91;75.95
65058;HTU21D;51644;51.068;5.860;2022-10-28T05:10:57;16.91;75.95
65058;HTU21D;51644;51.068;5.860;2022-10-28T05:11:56;16.88;75.98
65058;HTU21D;51644;51.068;5.860;2022-10-28T05:12:55;16.88;76.05
65058;HTU21D;51644;51.068;5.860;2022-10-28T05:13:53;16.87;76.08
65058;HTU21D;51644;51.068;5.860;2022-10-28T05:14:52;16.86;76.09
65058;HTU21D;51644;51.068;5.860;2022-10-28T05:15:50;16.87;76.06
65058;HTU21D;51644;51.068;5.860;2022-10-28T05:16:49;16.87;76.07
65058;HTU21D;51644;51.068;5.860;2022-10-28T05:17:47;16.87;76.05
65058;HTU21D;51644;51.068;5.860;2022-10-28T05:18:46;16.87;76.08
65058;HTU21D;51644;51.068;5.860;2022-10-28T05:19:44;16.87;76.12
65058;HTU21D;51644;51.068;5.860;2022-10-28T05:20:43;16.85;76.21
65058;HTU21D;51644;51.068;5.860;2022-10-28T05:21:42;16.84;76.35
65058;HTU21D;51644;51.068;5.860;2022-10-28T05:22:45;16.81;76.47
65058;HTU21D;51644;51.068;5.860;2022-10-28T05:23:44;16.79;76.64
65058;HTU21D;51644;51.068;5.860;2022-10-28T05:24:44;16.79;76.73
65058;HTU21D;51644;51.068;5.860;2022-10-28T05:25:43;16.78;76.79
65058;HTU21D;51644;51.068;5.860;2022-10-28T05:26:41;16.77;76.83
65058;HTU21D;51644;51.068;5.860;2022-10-28T05:27:40;16.77;76.92
65058;HTU21D;51644;51.068;5.860;2022-10-28T05:28:38;16.77;76.97
65058;HTU21D;51644;51.068;5.860;2022-10-28T05:29:37;16.75;77.04
65058;HTU21D;51644;51.068;5.860;2022-10-28T05:30:35;16.75;77.11
65058;HTU21D;51644;51.068;5.860;2022-10-28T05:31:35;16.76;77.09
65058;HTU21D;51644;51.068;5.860;2022-10-28T05:32:33;16.76;77.08
65058;HTU21D;51644;51.068;5.860;2022-10-28T05:33:32;16.76;77.06
65058;HTU21D;51644;51.068;5.860;2022-10-28T05:34:30;16.76;77.09
65058;HTU21D;51644;51.068;5.860;2022-10-28T05:35:30;16.76;77.11
65058;HTU21D;51644;51.068;5.860;2022-10-28T05:36:28;16.74;77.14
65058;HTU21D;51644;51.068;5.860;2022-10-28T05:37:27;16.73;77.15
65058;HTU21D;51644;51.068;5.860;2022-10-28T05:38:26;16.72;77.17
65058;HTU21D;51644;51.068;5.860;2022-10-28T05:39:24;16.71;77.18
65058;HTU21D;51644;51.068;5.860;2022-10-28T05:40:23;16.71;77.16
65058;HTU21D;51644;51.068;5.860;2022-10-28T05:41:22;16.70;77.16
65058;HTU21D;51644;51.068;5.860;2022-10-28T05:42:21;16.67;77.17
65058;HTU21D;51644;51.068;5.860;2022-10-28T05:43:19;16.67;77.16
65058;HTU21D;51644;51.068;5.860;2022-10-28T05:44:18;16.66;77.18
65058;HTU21D;51644;51.068;5.860;2022-10-28T05:45:16;16.65;77.16
65058;HTU21D;51644;51.068;5.860;2022-10-28T05:46:15;16.64;77.18
65058;HTU21D;51644;51.068;5.860;2022-10-28T05:47:13;16.63;77.22
65058;HTU21D;51644;51.068;5.860;2022-10-28T05:48:12;16.63;77.21
65058;HTU21D;51644;51.068;5.860;2022-10-28T05:49:11;16.61;77.23
65058;HTU21D;51644;51.068;5.860;2022-10-28T05:50:10;16.60;77.20
65058;HTU21D;51644;51.068;5.860;2022-10-28T05:51:09;16.60;77.18
65058;HTU21D;51644;51.068;5.860;2022-10-28T05:52:07;16.60;77.23
65058;HTU21D;51644;51.068;5.860;2022-10-28T05:53:06;16.61;77.19
65058;HTU21D;51644;51.068;5.860;2022-10-28T05:54:04;16.59;77.26
65058;HTU21D;51644;51.068;5.860;2022-10-28T05:55:04;16.60;77.29
65058;HTU21D;51644;51.068;5.860;2022-10-28T05:56:02;16.61;77.33
65058;HTU21D;51644;51.068;5.860;2022-10-28T05:57:01;16.62;77.34
65058;HTU21D;51644;51.068;5.860;2022-10-28T05:57:59;16.63;77.28
65058;HTU21D;51644;51.068;5.860;2022-10-28T05:58:58;16.63;77.21
65058;HTU21D;51644;51.068;5.860;2022-10-28T05:59:57;16.63;77.18
65058;HTU21D;51644;51.068;5.860;2022-10-28T06:00:55;16.62;77.24
65058;HTU21D;51644;51.068;5.860;2022-10-28T06:01:54;16.61;77.34
65058;HTU21D;51644;51.068;5.860;2022-10-28T06:02:52;16.63;77.39
65058;HTU21D;51644;51.068;5.860;2022-10-28T06:03:59;16.64;77.44
65058;HTU21D;51644;51.068;5.860;2022-10-28T06:04:58;16.65;77.44
65058;HTU21D;51644;51.068;5.860;2022-10-28T06:05:57;16.66;77.44
65058;HTU21D;51644;51.068;5.860;2022-10-28T06:06:56;16.64;77.47
65058;HTU21D;51644;51.068;5.860;2022-10-28T06:07:54;16.65;77.51
65058;HTU21D;51644;51.068;5.860;2022-10-28T06:08:53;16.65;77.50
65058;HTU21D;51644;51.068;5.860;2022-10-28T06:09:51;16.66;77.48
65058;HTU21D;51644;51.068;5.860;2022-10-28T06:10:52;16.66;77.46
65058;HTU21D;51644;51.068;5.860;2022-10-28T06:11:51;16.66;77.44
65058;HTU21D;51644;51.068;5.860;2022-10-28T06:12:49;16.62;77.44
65058;HTU21D;51644;51.068;5.860;2022-10-28T06:13:48;16.60;77.47
65058;HTU21D;51644;51.068;5.860;2022-10-28T06:14:47;16.60;77.47
65058;HTU21D;51644;51.068;5.860;2022-10-28T06:15:53;16.59;77.47
65058;HTU21D;51644;51.068;5.860;2022-10-28T06:16:52;16.57;77.48
65058;HTU21D;51644;51.068;5.860;2022-10-28T06:17:50;16.57;77.47
65058;HTU21D;51644;51.068;5.860;2022-10-28T06:18:49;16.55;77.55
65058;HTU21D;51644;51.068;5.860;2022-10-28T06:19:48;16.54;77.59
65058;HTU21D;51644;51.068;5.860;2022-10-28T06:20:54;16.54;77.57
65058;HTU21D;51644;51.068;5.860;2022-10-28T06:21:53;16.50;77.58
65058;HTU21D;51644;51.068;5.860;2022-10-28T06:22:53;16.48;77.59
65058;HTU21D;51644;51.068;5.860;2022-10-28T06:23:52;16.47;77.64
65058;HTU21D;51644;51.068;5.860;2022-10-28T06:24:51;16.45;77.62
65058;HTU21D;51644;51.068;5.860;2022-10-28T06:25:50;16.44;77.61
65058;HTU21D;51644;51.068;5.860;2022-10-28T06:26:49;16.43;77.65
65058;HTU21D;51644;51.068;5.860;2022-10-28T06:27:58;16.43;77.69
65058;HTU21D;51644;51.068;5.860;2022-10-28T06:28:59;16.41;77.75
65058;HTU21D;51644;51.068;5.860;2022-10-28T06:29:58;16.40;77.75
65058;HTU21D;51644;51.068;5.860;2022-10-28T06:31:07;16.40;77.75
65058;HTU21D;51644;51.068;5.860;2022-10-28T06:32:09;16.40;77.77
65058;HTU21D;51644;51.068;5.860;2022-10-28T06:33:08;16.39;77.81
65058;HTU21D;51644;51.068;5.860;2022-10-28T06:34:08;16.40;77.81
65058;HTU21D;51644;51.068;5.860;2022-10-28T06:35:06;16.37;77.85
65058;HTU21D;51644;51.068;5.860;2022-10-28T06:36:05;16.37;77.91
65058;HTU21D;51644;51.068;5.860;2022-10-28T06:37:04;16.37;77.92
65058;HTU21D;51644;51.068;5.860;2022-10-28T06:38:04;16.37;77.90
65058;HTU21D;51644;51.068;5.860;2022-10-28T06:39:03;16.39;77.91
65058;HTU21D;51644;51.068;5.860;2022-10-28T06:40:01;16.39;77.88
65058;HTU21D;51644;51.068;5.860;2022-10-28T06:41:00;16.41;77.86
65058;HTU21D;51644;51.068;5.860;2022-10-28T06:41:58;16.42;77.89
65058;HTU21D;51644;51.068;5.860;2022-10-28T06:42:58;16.44;77.90
65058;HTU21D;51644;51.068;5.860;2022-10-28T06:43:57;16.46;77.87
65058;HTU21D;51644;51.068;5.860;2022-10-28T06:44:56;16.47;77.85
65058;HTU21D;51644;51.068;5.860;2022-10-28T06:45:54;16.50;77.85
65058;HTU21D;51644;51.068;5.860;2022-10-28T06:46:54;16.52;77.85
65058;HTU21D;51644;51.068;5.860;2022-10-28T06:48:02;16.57;77.84
65058;HTU21D;51644;51.068;5.860;2022-10-28T06:49:01;16.63;77.76
65058;HTU21D;51644;51.068;5.860;2022-10-28T06:50:00;16.66;77.66
65058;HTU21D;51644;51.068;5.860;2022-10-28T06:50:59;16.70;77.60
65058;HTU21D;51644;51.068;5.860;2022-10-28T06:51:58;16.73;77.51
65058;HTU21D;51644;51.068;5.860;2022-10-28T06:52:57;16.77;77.49
65058;HTU21D;51644;51.068;5.860;2022-10-28T06:53:56;16.80;77.47
65058;HTU21D;51644;51.068;5.860;2022-10-28T06:54:55;16.85;77.37
65058;HTU21D;51644;51.068;5.860;2022-10-28T06:55:55;16.89;77.25